This is the latest recevied weather packets stored in our database for station/object K5KVN. If no packets are shown the sender has not sent any weather packets the latest 10 day(s).
| Time | Temp. | Humidity | Pressure | Rain* | Wind** | Luminosity | Snow |
|---|---|---|---|---|---|---|---|
| 1777993797 | 19.44° C | 90% | 1005.6 hPa | 0 mm | - | - | - |
| 1777993194 | 18.89° C | 91% | 1005.5 hPa | 0 mm | - | - | - |
| 1777992594 | 18.33° C | 92% | 1005.8 hPa | 0 mm | - | - | - |
| 1777992055 | 18.33° C | 93% | 1005.8 hPa | 0 mm | - | - | - |
| 1777991394 | 18.33° C | 93% | 1005.7 hPa | 0 mm | - | - | - |
| 1777989589 | 17.22° C | 94% | 1006.2 hPa | 0 mm | - | - | - |
| 1777988988 | 17.22° C | 95% | 1006.1 hPa | 0 mm | - | - | - |
| 1777988389 | 17.22° C | 95% | 1006.1 hPa | 0 mm | - | - | - |
| 1777987790 | 16.67° C | 95% | 1006.1 hPa | 0 mm | - | - | - |
| 1777987249 | 16.67° C | 95% | 1005.9 hPa | 0 mm | - | - | - |
| 1777986589 | 16.67° C | 95% | 1005.9 hPa | 0 mm | - | - | - |
| 1777985989 | 16.11° C | 95% | 1006 hPa | 0 mm | - | - | - |
| 1777985389 | 16.11° C | 95% | 1006 hPa | 0 mm | - | - | - |
| 1777984786 | 16.11° C | 96% | 1006 hPa | 0 mm | - | - | - |
| 1777984187 | 16.11° C | 96% | 1005.8 hPa | 0 mm | - | - | - |
| 1777983584 | 16.11° C | 96% | 1005.8 hPa | 0 mm | - | - | - |
| 1777982984 | 15.56° C | 96% | 1005.9 hPa | 0 mm | - | - | - |
| 1777982382 | 15.56° C | 96% | 1005.7 hPa | 0 mm | - | - | - |
| 1777981784 | 15.56° C | 96% | 1005.7 hPa | 0 mm | - | - | - |
| 1777981243 | 15.56° C | 96% | 1005.6 hPa | 0 mm | - | - | - |
| 1777980643 | 15.56° C | 96% | 1005.7 hPa | 0 mm | - | - | - |
| 1777979981 | 15.56° C | 96% | 1005.7 hPa | 0 mm | - | - | - |
| 1777979381 | 15.56° C | 96% | 1005.6 hPa | 0 mm | - | - | - |
| 1777978780 | 15.56° C | 96% | 1005.6 hPa | 0 mm | - | - | - |
| 1777978180 | 15.56° C | 96% | 1005.7 hPa | 0 mm | - | - | - |
* Rain latest hour (hover to see other rain measurements)
** Current wind speed in m/s (hover to see current wind gust speed)